首页
METAR-TAF:

METAR-TAF

机场 :

Marianna Municipal Airport

Marianna, 佛罗里达州, 美国

纬度: 30-50-12N, 经度: 085-11-01W, 海拔: 34米

当前天气观测

该预报发布于40分钟前的07:53 UTC
风速4节,风向南转西南
温度 24°C
湿度 100%
气压 1016 hPa
能見度: 16.1公里
天空无云

METAR: KMAI 190753Z AUTO 20004KT 10SM CLR 24/24 A2999 RMK AO2 SLP154 T02440239 $

时间: 03:33 (08:33 UTC)


TAF: 丢失

超过4000个机场的气象观测和天气预报(METAR&TAF报告)。

可查询的气象台以黄色和红色小点在地图上表示。

将鼠标移到小点上方,可查看气象台名称。

然后点击查看天气观测和预报。

如需切换地图:点击带黑十字的绿色按钮放大地图;点击带横线的绿色按钮缩小地图;或者点击绿色箭头查看邻近地区的地图。


METAR-TAF: